sensor_id;sensor_type;location;lat;lon;timestamp;P1;durP1;ratioP1;P2;durP2;ratioP2
3541;SDS011;1785;47.388;8.538;2023-09-08T00:01:36;13.73;;;12.43;;
3541;SDS011;1785;47.388;8.538;2023-09-08T00:04:02;14.43;;;10.27;;
3541;SDS011;1785;47.388;8.538;2023-09-08T00:06:29;11.40;;;10.20;;
3541;SDS011;1785;47.388;8.538;2023-09-08T00:08:55;12.60;;;11.40;;
3541;SDS011;1785;47.388;8.538;2023-09-08T00:11:21;11.93;;;10.80;;
3541;SDS011;1785;47.388;8.538;2023-09-08T00:13:47;12.40;;;11.30;;
3541;SDS011;1785;47.388;8.538;2023-09-08T00:16:15;14.43;;;11.90;;
3541;SDS011;1785;47.388;8.538;2023-09-08T00:18:41;12.83;;;11.53;;
3541;SDS011;1785;47.388;8.538;2023-09-08T00:21:07;11.48;;;10.27;;
3541;SDS011;1785;47.388;8.538;2023-09-08T00:23:33;12.73;;;11.43;;
3541;SDS011;1785;47.388;8.538;2023-09-08T00:25:59;11.50;;;10.60;;
3541;SDS011;1785;47.388;8.538;2023-09-08T00:28:26;12.10;;;11.10;;
3541;SDS011;1785;47.388;8.538;2023-09-08T00:30:52;11.17;;;10.17;;
3541;SDS011;1785;47.388;8.538;2023-09-08T00:33:18;13.03;;;11.90;;
3541;SDS011;1785;47.388;8.538;2023-09-08T00:35:44;12.93;;;11.82;;
3541;SDS011;1785;47.388;8.538;2023-09-08T00:38:10;13.17;;;11.97;;
3541;SDS011;1785;47.388;8.538;2023-09-08T00:40:36;12.47;;;10.87;;
3541;SDS011;1785;47.388;8.538;2023-09-08T00:43:03;11.90;;;10.90;;
3541;SDS011;1785;47.388;8.538;2023-09-08T00:45:29;13.27;;;12.07;;
3541;SDS011;1785;47.388;8.538;2023-09-08T00:47:56;12.23;;;11.03;;
3541;SDS011;1785;47.388;8.538;2023-09-08T00:50:22;15.30;;;11.63;;
3541;SDS011;1785;47.388;8.538;2023-09-08T00:52:48;13.27;;;11.90;;
3541;SDS011;1785;47.388;8.538;2023-09-08T00:55:14;12.63;;;11.37;;
3541;SDS011;1785;47.388;8.538;2023-09-08T00:57:40;11.77;;;10.77;;
3541;SDS011;1785;47.388;8.538;2023-09-08T01:00:07;11.47;;;10.47;;
3541;SDS011;1785;47.388;8.538;2023-09-08T01:02:34;12.83;;;11.23;;
3541;SDS011;1785;47.388;8.538;2023-09-08T01:05:01;13.27;;;11.97;;
3541;SDS011;1785;47.388;8.538;2023-09-08T01:07:27;13.97;;;12.57;;
3541;SDS011;1785;47.388;8.538;2023-09-08T01:09:56;14.47;;;11.83;;
3541;SDS011;1785;47.388;8.538;2023-09-08T01:12:27;15.03;;;11.90;;
3541;SDS011;1785;47.388;8.538;2023-09-08T01:14:54;12.53;;;11.33;;
3541;SDS011;1785;47.388;8.538;2023-09-08T01:17:20;13.00;;;10.60;;
3541;SDS011;1785;47.388;8.538;2023-09-08T01:19:47;12.37;;;11.27;;
3541;SDS011;1785;47.388;8.538;2023-09-08T01:22:20;12.80;;;11.60;;
3541;SDS011;1785;47.388;8.538;2023-09-08T01:25:13;11.63;;;10.43;;
3541;SDS011;1785;47.388;8.538;2023-09-08T01:27:45;11.67;;;10.47;;
3541;SDS011;1785;47.388;8.538;2023-09-08T01:30:13;12.57;;;11.47;;
3541;SDS011;1785;47.388;8.538;2023-09-08T01:32:40;12.80;;;11.60;;
3541;SDS011;1785;47.388;8.538;2023-09-08T01:35:08;13.00;;;11.70;;
3541;SDS011;1785;47.388;8.538;2023-09-08T01:37:35;12.23;;;11.03;;
3541;SDS011;1785;47.388;8.538;2023-09-08T01:40:01;13.10;;;12.00;;
3541;SDS011;1785;47.388;8.538;2023-09-08T01:42:28;13.40;;;12.03;;
3541;SDS011;1785;47.388;8.538;2023-09-08T01:44:54;13.63;;;11.83;;
3541;SDS011;1785;47.388;8.538;2023-09-08T01:47:20;11.67;;;10.63;;
3541;SDS011;1785;47.388;8.538;2023-09-08T01:49:46;12.23;;;11.03;;
3541;SDS011;1785;47.388;8.538;2023-09-08T01:52:12;12.03;;;10.90;;
3541;SDS011;1785;47.388;8.538;2023-09-08T01:54:38;13.80;;;11.80;;
3541;SDS011;1785;47.388;8.538;2023-09-08T01:57:04;11.70;;;10.70;;
3541;SDS011;1785;47.388;8.538;2023-09-08T01:59:31;12.07;;;11.13;;
3541;SDS011;1785;47.388;8.538;2023-09-08T02:01:57;12.10;;;11.00;;
3541;SDS011;1785;47.388;8.538;2023-09-08T02:04:23;10.73;;;9.63;;
3541;SDS011;1785;47.388;8.538;2023-09-08T02:06:49;12.47;;;11.27;;
3541;SDS011;1785;47.388;8.538;2023-09-08T02:09:15;12.07;;;10.93;;
3541;SDS011;1785;47.388;8.538;2023-09-08T02:11:41;12.87;;;11.60;;
3541;SDS011;1785;47.388;8.538;2023-09-08T02:14:07;12.87;;;11.77;;
3541;SDS011;1785;47.388;8.538;2023-09-08T02:16:34;12.07;;;10.90;;
3541;SDS011;1785;47.388;8.538;2023-09-08T02:19:00;11.13;;;10.23;;
3541;SDS011;1785;47.388;8.538;2023-09-08T02:21:26;13.37;;;12.03;;
3541;SDS011;1785;47.388;8.538;2023-09-08T02:23:52;11.93;;;10.93;;
3541;SDS011;1785;47.388;8.538;2023-09-08T02:26:18;11.77;;;10.57;;
3541;SDS011;1785;47.388;8.538;2023-09-08T02:28:44;12.27;;;11.20;;
3541;SDS011;1785;47.388;8.538;2023-09-08T02:31:10;12.20;;;11.13;;
3541;SDS011;1785;47.388;8.538;2023-09-08T02:33:37;12.10;;;11.00;;
3541;SDS011;1785;47.388;8.538;2023-09-08T02:36:04;12.93;;;11.83;;
3541;SDS011;1785;47.388;8.538;2023-09-08T02:38:30;14.10;;;12.77;;
3541;SDS011;1785;47.388;8.538;2023-09-08T02:40:56;12.30;;;11.30;;
3541;SDS011;1785;47.388;8.538;2023-09-08T02:43:22;12.03;;;10.93;;
3541;SDS011;1785;47.388;8.538;2023-09-08T02:45:49;11.87;;;10.90;;
3541;SDS011;1785;47.388;8.538;2023-09-08T02:48:15;11.53;;;10.53;;
3541;SDS011;1785;47.388;8.538;2023-09-08T02:50:43;14.53;;;11.97;;
3541;SDS011;1785;47.388;8.538;2023-09-08T02:53:09;11.77;;;10.67;;
3541;SDS011;1785;47.388;8.538;2023-09-08T02:55:35;11.20;;;10.30;;
3541;SDS011;1785;47.388;8.538;2023-09-08T02:58:01;13.07;;;11.70;;
3541;SDS011;1785;47.388;8.538;2023-09-08T03:00:27;13.40;;;12.17;;
3541;SDS011;1785;47.388;8.538;2023-09-08T03:02:54;13.37;;;12.07;;
3541;SDS011;1785;47.388;8.538;2023-09-08T03:05:20;13.40;;;11.87;;
3541;SDS011;1785;47.388;8.538;2023-09-08T03:07:48;12.90;;;11.80;;
3541;SDS011;1785;47.388;8.538;2023-09-08T03:10:14;13.23;;;12.10;;
3541;SDS011;1785;47.388;8.538;2023-09-08T03:12:41;13.57;;;12.30;;
3541;SDS011;1785;47.388;8.538;2023-09-08T03:15:07;14.57;;;13.37;;
3541;SDS011;1785;47.388;8.538;2023-09-08T03:17:33;13.83;;;12.57;;
3541;SDS011;1785;47.388;8.538;2023-09-08T03:19:59;14.83;;;12.53;;
3541;SDS011;1785;47.388;8.538;2023-09-08T03:22:25;14.27;;;12.87;;
3541;SDS011;1785;47.388;8.538;2023-09-08T03:24:52;12.67;;;11.47;;
3541;SDS011;1785;47.388;8.538;2023-09-08T03:27:18;13.20;;;12.00;;
3541;SDS011;1785;47.388;8.538;2023-09-08T03:29:44;13.00;;;12.00;;
3541;SDS011;1785;47.388;8.538;2023-09-08T03:32:10;12.90;;;11.90;;
3541;SDS011;1785;47.388;8.538;2023-09-08T03:34:36;13.00;;;11.63;;
3541;SDS011;1785;47.388;8.538;2023-09-08T03:37:04;12.80;;;11.70;;
3541;SDS011;1785;47.388;8.538;2023-09-08T03:39:30;13.77;;;11.97;;
3541;SDS011;1785;47.388;8.538;2023-09-08T03:41:57;13.83;;;12.43;;
3541;SDS011;1785;47.388;8.538;2023-09-08T03:44:23;14.70;;;13.40;;
3541;SDS011;1785;47.388;8.538;2023-09-08T03:46:49;14.80;;;13.53;;
3541;SDS011;1785;47.388;8.538;2023-09-08T03:49:15;14.20;;;12.93;;
3541;SDS011;1785;47.388;8.538;2023-09-08T03:51:41;15.83;;;14.13;;
3541;SDS011;1785;47.388;8.538;2023-09-08T03:54:07;13.50;;;12.20;;
3541;SDS011;1785;47.388;8.538;2023-09-08T03:56:33;15.23;;;13.75;;
3541;SDS011;1785;47.388;8.538;2023-09-08T03:59:00;13.20;;;12.10;;
3541;SDS011;1785;47.388;8.538;2023-09-08T04:01:26;14.50;;;13.13;;
3541;SDS011;1785;47.388;8.538;2023-09-08T04:03:52;13.57;;;12.37;;
3541;SDS011;1785;47.388;8.538;2023-09-08T04:06:18;14.80;;;13.30;;
3541;SDS011;1785;47.388;8.538;2023-09-08T04:08:44;16.50;;;12.00;;
3541;SDS011;1785;47.388;8.538;2023-09-08T04:11:10;14.43;;;13.13;;
3541;SDS011;1785;47.388;8.538;2023-09-08T04:13:36;13.73;;;12.33;;
3541;SDS011;1785;47.388;8.538;2023-09-08T04:16:03;13.57;;;12.37;;
3541;SDS011;1785;47.388;8.538;2023-09-08T04:18:29;15.20;;;12.70;;
3541;SDS011;1785;47.388;8.538;2023-09-08T04:20:55;12.73;;;11.63;;
3541;SDS011;1785;47.388;8.538;2023-09-08T04:23:21;13.50;;;12.30;;
3541;SDS011;1785;47.388;8.538;2023-09-08T04:25:47;17.43;;;12.70;;
3541;SDS011;1785;47.388;8.538;2023-09-08T04:28:13;14.20;;;12.97;;
3541;SDS011;1785;47.388;8.538;2023-09-08T04:30:39;12.63;;;11.53;;
3541;SDS011;1785;47.388;8.538;2023-09-08T04:33:06;14.90;;;13.57;;
3541;SDS011;1785;47.388;8.538;2023-09-08T04:35:32;13.43;;;12.23;;
3541;SDS011;1785;47.388;8.538;2023-09-08T04:37:58;14.47;;;12.93;;
3541;SDS011;1785;47.388;8.538;2023-09-08T04:40:24;14.63;;;13.20;;
3541;SDS011;1785;47.388;8.538;2023-09-08T04:42:50;14.23;;;12.83;;
3541;SDS011;1785;47.388;8.538;2023-09-08T04:45:16;14.50;;;13.13;;
3541;SDS011;1785;47.388;8.538;2023-09-08T04:47:42;14.95;;;13.45;;
3541;SDS011;1785;47.388;8.538;2023-09-08T04:50:09;13.93;;;12.60;;
3541;SDS011;1785;47.388;8.538;2023-09-08T04:52:35;14.60;;;13.33;;
3541;SDS011;1785;47.388;8.538;2023-09-08T04:55:01;13.93;;;12.67;;
3541;SDS011;1785;47.388;8.538;2023-09-08T04:57:28;14.33;;;12.93;;
3541;SDS011;1785;47.388;8.538;2023-09-08T04:59:54;15.10;;;13.50;;
3541;SDS011;1785;47.388;8.538;2023-09-08T05:02:20;15.50;;;13.77;;
3541;SDS011;1785;47.388;8.538;2023-09-08T05:04:46;12.83;;;11.63;;
3541;SDS011;1785;47.388;8.538;2023-09-08T05:07:13;13.87;;;12.67;;
3541;SDS011;1785;47.388;8.538;2023-09-08T05:09:39;14.07;;;12.87;;
3541;SDS011;1785;47.388;8.538;2023-09-08T05:12:05;15.13;;;12.80;;
3541;SDS011;1785;47.388;8.538;2023-09-08T05:14:32;14.90;;;13.30;;
3541;SDS011;1785;47.388;8.538;2023-09-08T05:16:58;15.10;;;13.60;;
3541;SDS011;1785;47.388;8.538;2023-09-08T05:19:24;13.20;;;12.00;;
3541;SDS011;1785;47.388;8.538;2023-09-08T05:21:50;15.50;;;14.10;;
3541;SDS011;1785;47.388;8.538;2023-09-08T05:24:19;15.03;;;13.63;;
3541;SDS011;1785;47.388;8.538;2023-09-08T05:26:46;16.13;;;14.57;;
3541;SDS011;1785;47.388;8.538;2023-09-08T05:29:12;14.40;;;12.93;;
3541;SDS011;1785;47.388;8.538;2023-09-08T05:31:38;14.87;;;13.30;;
3541;SDS011;1785;47.388;8.538;2023-09-08T05:34:04;15.53;;;14.13;;
3541;SDS011;1785;47.388;8.538;2023-09-08T05:36:31;19.63;;;12.37;;
3541;SDS011;1785;47.388;8.538;2023-09-08T05:38:59;15.43;;;14.07;;
3541;SDS011;1785;47.388;8.538;2023-09-08T05:41:26;14.77;;;13.20;;
3541;SDS011;1785;47.388;8.538;2023-09-08T05:43:52;16.13;;;14.60;;
3541;SDS011;1785;47.388;8.538;2023-09-08T05:46:18;16.33;;;14.77;;
3541;SDS011;1785;47.388;8.538;2023-09-08T05:48:44;14.57;;;13.13;;
3541;SDS011;1785;47.388;8.538;2023-09-08T05:51:12;16.97;;;15.03;;
3541;SDS011;1785;47.388;8.538;2023-09-08T05:53:39;18.30;;;12.50;;
3541;SDS011;1785;47.388;8.538;2023-09-08T05:56:05;12.93;;;11.77;;
3541;SDS011;1785;47.388;8.538;2023-09-08T05:58:32;15.23;;;12.30;;
3541;SDS011;1785;47.388;8.538;2023-09-08T06:00:59;13.80;;;12.40;;
3541;SDS011;1785;47.388;8.538;2023-09-08T06:03:25;17.13;;;14.70;;
3541;SDS011;1785;47.388;8.538;2023-09-08T06:05:51;14.73;;;13.37;;
3541;SDS011;1785;47.388;8.538;2023-09-08T06:08:17;16.90;;;15.20;;
3541;SDS011;1785;47.388;8.538;2023-09-08T06:10:43;15.93;;;13.83;;
3541;SDS011;1785;47.388;8.538;2023-09-08T06:13:09;17.80;;;15.50;;
3541;SDS011;1785;47.388;8.538;2023-09-08T06:15:36;18.90;;;14.63;;
3541;SDS011;1785;47.388;8.538;2023-09-08T06:18:02;23.37;;;15.10;;
3541;SDS011;1785;47.388;8.538;2023-09-08T06:20:29;17.37;;;15.70;;
3541;SDS011;1785;47.388;8.538;2023-09-08T06:22:55;20.00;;;14.33;;
3541;SDS011;1785;47.388;8.538;2023-09-08T06:25:21;17.10;;;15.27;;
3541;SDS011;1785;47.388;8.538;2023-09-08T06:27:47;16.93;;;14.97;;
3541;SDS011;1785;47.388;8.538;2023-09-08T06:30:13;23.90;;;14.97;;
3541;SDS011;1785;47.388;8.538;2023-09-08T06:32:41;16.50;;;14.70;;
3541;SDS011;1785;47.388;8.538;2023-09-08T06:35:08;16.00;;;14.50;;
3541;SDS011;1785;47.388;8.538;2023-09-08T06:37:35;16.50;;;14.87;;
3541;SDS011;1785;47.388;8.538;2023-09-08T06:40:01;18.37;;;16.57;;
3541;SDS011;1785;47.388;8.538;2023-09-08T06:42:27;18.43;;;15.00;;
3541;SDS011;1785;47.388;8.538;2023-09-08T06:44:53;18.20;;;16.40;;
3541;SDS011;1785;47.388;8.538;2023-09-08T06:47:20;15.97;;;14.40;;
3541;SDS011;1785;47.388;8.538;2023-09-08T06:49:46;17.00;;;15.40;;
3541;SDS011;1785;47.388;8.538;2023-09-08T06:52:12;15.00;;;13.60;;
3541;SDS011;1785;47.388;8.538;2023-09-08T06:54:39;16.63;;;14.27;;
3541;SDS011;1785;47.388;8.538;2023-09-08T06:57:05;15.17;;;13.50;;
3541;SDS011;1785;47.388;8.538;2023-09-08T06:59:31;14.40;;;12.90;;
3541;SDS011;1785;47.388;8.538;2023-09-08T07:01:57;14.60;;;12.33;;
3541;SDS011;1785;47.388;8.538;2023-09-08T07:04:23;14.53;;;13.20;;
3541;SDS011;1785;47.388;8.538;2023-09-08T07:06:50;17.17;;;15.37;;
3541;SDS011;1785;47.388;8.538;2023-09-08T07:09:19;17.70;;;15.80;;
3541;SDS011;1785;47.388;8.538;2023-09-08T07:11:45;17.03;;;15.20;;
3541;SDS011;1785;47.388;8.538;2023-09-08T07:14:12;16.27;;;14.57;;
3541;SDS011;1785;47.388;8.538;2023-09-08T07:16:38;14.27;;;12.87;;
3541;SDS011;1785;47.388;8.538;2023-09-08T07:19:04;14.60;;;13.23;;
3541;SDS011;1785;47.388;8.538;2023-09-08T07:21:30;17.30;;;15.47;;
3541;SDS011;1785;47.388;8.538;2023-09-08T07:23:57;15.73;;;14.20;;
3541;SDS011;1785;47.388;8.538;2023-09-08T07:26:23;16.67;;;14.83;;
3541;SDS011;1785;47.388;8.538;2023-09-08T07:28:49;18.70;;;16.70;;
3541;SDS011;1785;47.388;8.538;2023-09-08T07:31:16;20.20;;;17.10;;
3541;SDS011;1785;47.388;8.538;2023-09-08T07:33:42;19.37;;;17.37;;
3541;SDS011;1785;47.388;8.538;2023-09-08T07:36:08;16.73;;;15.23;;
3541;SDS011;1785;47.388;8.538;2023-09-08T07:38:35;18.00;;;14.43;;
3541;SDS011;1785;47.388;8.538;2023-09-08T07:41:02;17.90;;;16.10;;
3541;SDS011;1785;47.388;8.538;2023-09-08T07:43:28;19.23;;;17.30;;
3541;SDS011;1785;47.388;8.538;2023-09-08T07:45:54;19.33;;;17.43;;
3541;SDS011;1785;47.388;8.538;2023-09-08T07:48:21;17.37;;;15.57;;
3541;SDS011;1785;47.388;8.538;2023-09-08T07:50:47;17.03;;;15.43;;
3541;SDS011;1785;47.388;8.538;2023-09-08T07:53:13;19.90;;;17.83;;
3541;SDS011;1785;47.388;8.538;2023-09-08T07:55:39;20.63;;;17.00;;
3541;SDS011;1785;47.388;8.538;2023-09-08T07:58:05;17.60;;;16.00;;
3541;SDS011;1785;47.388;8.538;2023-09-08T08:00:33;19.57;;;17.70;;
3541;SDS011;1785;47.388;8.538;2023-09-08T08:02:59;20.13;;;18.00;;
3541;SDS011;1785;47.388;8.538;2023-09-08T08:05:25;18.13;;;16.13;;
3541;SDS011;1785;47.388;8.538;2023-09-08T08:07:51;16.87;;;14.93;;
3541;SDS011;1785;47.388;8.538;2023-09-08T08:10:18;18.53;;;16.83;;
3541;SDS011;1785;47.388;8.538;2023-09-08T08:12:44;17.90;;;16.17;;
3541;SDS011;1785;47.388;8.538;2023-09-08T08:15:11;19.67;;;17.10;;
3541;SDS011;1785;47.388;8.538;2023-09-08T08:17:37;17.98;;;16.17;;
3541;SDS011;1785;47.388;8.538;2023-09-08T08:20:05;20.90;;;17.70;;
3541;SDS011;1785;47.388;8.538;2023-09-08T08:22:34;19.30;;;17.33;;
3541;SDS011;1785;47.388;8.538;2023-09-08T08:25:00;17.23;;;15.43;;
3541;SDS011;1785;47.388;8.538;2023-09-08T08:27:28;17.90;;;16.17;;
3541;SDS011;1785;47.388;8.538;2023-09-08T08:29:56;16.40;;;14.80;;
3541;SDS011;1785;47.388;8.538;2023-09-08T08:32:23;19.53;;;16.40;;
3541;SDS011;1785;47.388;8.538;2023-09-08T08:34:49;17.63;;;15.77;;
3541;SDS011;1785;47.388;8.538;2023-09-08T08:37:15;18.50;;;16.60;;
3541;SDS011;1785;47.388;8.538;2023-09-08T08:39:41;17.50;;;15.90;;
3541;SDS011;1785;47.388;8.538;2023-09-08T08:42:08;16.30;;;14.90;;
3541;SDS011;1785;47.388;8.538;2023-09-08T08:44:34;17.10;;;15.40;;
3541;SDS011;1785;47.388;8.538;2023-09-08T08:47:02;16.87;;;15.17;;
3541;SDS011;1785;47.388;8.538;2023-09-08T08:49:30;16.87;;;15.10;;
3541;SDS011;1785;47.388;8.538;2023-09-08T08:51:57;16.23;;;14.43;;
3541;SDS011;1785;47.388;8.538;2023-09-08T08:54:24;17.15;;;15.35;;
3541;SDS011;1785;47.388;8.538;2023-09-08T08:56:50;18.97;;;15.90;;
3541;SDS011;1785;47.388;8.538;2023-09-08T08:59:16;14.87;;;13.57;;
3541;SDS011;1785;47.388;8.538;2023-09-08T09:01:44;16.60;;;14.90;;
3541;SDS011;1785;47.388;8.538;2023-09-08T09:04:11;15.47;;;14.10;;
3541;SDS011;1785;47.388;8.538;2023-09-08T09:06:39;18.60;;;13.93;;
3541;SDS011;1785;47.388;8.538;2023-09-08T09:09:05;16.17;;;14.47;;
3541;SDS011;1785;47.388;8.538;2023-09-08T09:11:33;14.43;;;13.13;;
3541;SDS011;1785;47.388;8.538;2023-09-08T09:13:59;16.40;;;14.77;;
3541;SDS011;1785;47.388;8.538;2023-09-08T09:16:25;15.23;;;13.73;;
3541;SDS011;1785;47.388;8.538;2023-09-08T09:18:55;15.40;;;13.87;;
3541;SDS011;1785;47.388;8.538;2023-09-08T09:21:22;16.50;;;14.60;;
3541;SDS011;1785;47.388;8.538;2023-09-08T09:23:49;16.83;;;14.90;;
3541;SDS011;1785;47.388;8.538;2023-09-08T09:26:22;16.30;;;14.60;;
3541;SDS011;1785;47.388;8.538;2023-09-08T09:28:50;14.07;;;12.80;;
3541;SDS011;1785;47.388;8.538;2023-09-08T09:31:17;14.43;;;12.93;;
3541;SDS011;1785;47.388;8.538;2023-09-08T09:33:43;15.43;;;14.20;;
3541;SDS011;1785;47.388;8.538;2023-09-08T09:36:10;15.87;;;13.93;;
3541;SDS011;1785;47.388;8.538;2023-09-08T09:38:46;15.00;;;13.80;;
3541;SDS011;1785;47.388;8.538;2023-09-08T09:41:13;15.43;;;14.13;;
3541;SDS011;1785;47.388;8.538;2023-09-08T09:43:39;14.50;;;13.10;;
3541;SDS011;1785;47.388;8.538;2023-09-08T09:46:06;19.17;;;14.00;;
3541;SDS011;1785;47.388;8.538;2023-09-08T09:48:33;14.50;;;13.20;;
3541;SDS011;1785;47.388;8.538;2023-09-08T09:51:14;14.77;;;13.37;;
3541;SDS011;1785;47.388;8.538;2023-09-08T09:53:41;13.13;;;12.03;;
3541;SDS011;1785;47.388;8.538;2023-09-08T09:56:07;14.97;;;13.10;;
3541;SDS011;1785;47.388;8.538;2023-09-08T09:58:35;14.87;;;13.57;;
3541;SDS011;1785;47.388;8.538;2023-09-08T10:01:03;15.85;;;14.35;;
3541;SDS011;1785;47.388;8.538;2023-09-08T10:03:30;14.87;;;13.57;;
3541;SDS011;1785;47.388;8.538;2023-09-08T10:05:58;15.17;;;13.77;;
3541;SDS011;1785;47.388;8.538;2023-09-08T10:08:25;12.73;;;11.70;;
3541;SDS011;1785;47.388;8.538;2023-09-08T10:10:52;15.03;;;13.60;;
3541;SDS011;1785;47.388;8.538;2023-09-08T10:13:21;15.20;;;13.63;;
3541;SDS011;1785;47.388;8.538;2023-09-08T10:15:52;13.17;;;11.87;;
3541;SDS011;1785;47.388;8.538;2023-09-08T10:18:23;13.67;;;12.60;;
3541;SDS011;1785;47.388;8.538;2023-09-08T10:20:50;36.53;;;31.67;;
3541;SDS011;1785;47.388;8.538;2023-09-08T10:23:20;15.67;;;14.17;;
3541;SDS011;1785;47.388;8.538;2023-09-08T10:25:50;15.80;;;12.80;;
3541;SDS011;1785;47.388;8.538;2023-09-08T10:28:21;17.03;;;15.33;;
3541;SDS011;1785;47.388;8.538;2023-09-08T10:30:47;23.03;;;21.03;;
3541;SDS011;1785;47.388;8.538;2023-09-08T10:33:16;136.23;;;127.43;;
3541;SDS011;1785;47.388;8.538;2023-09-08T10:35:43;23.97;;;22.20;;
3541;SDS011;1785;47.388;8.538;2023-09-08T10:38:22;173.73;;;162.60;;
3541;SDS011;1785;47.388;8.538;2023-09-08T10:40:52;1999.90;;;999.90;;
3541;SDS011;1785;47.388;8.538;2023-09-08T10:43:19;472.73;;;433.63;;
3541;SDS011;1785;47.388;8.538;2023-09-08T10:45:45;38.83;;;35.73;;
3541;SDS011;1785;47.388;8.538;2023-09-08T10:48:12;49.92;;;45.97;;
3541;SDS011;1785;47.388;8.538;2023-09-08T10:50:40;33.10;;;30.00;;
3541;SDS011;1785;47.388;8.538;2023-09-08T10:53:08;16.33;;;14.63;;
3541;SDS011;1785;47.388;8.538;2023-09-08T10:55:40;16.30;;;13.57;;
3541;SDS011;1785;47.388;8.538;2023-09-08T10:58:09;9.80;;;8.90;;
3541;SDS011;1785;47.388;8.538;2023-09-08T11:00:45;282.10;;;261.57;;
3541;SDS011;1785;47.388;8.538;2023-09-08T11:03:13;421.57;;;390.97;;
3541;SDS011;1785;47.388;8.538;2023-09-08T11:05:41;959.03;;;873.37;;
3541;SDS011;1785;47.388;8.538;2023-09-08T11:08:08;1278.37;;;999.90;;
3541;SDS011;1785;47.388;8.538;2023-09-08T11:10:36;1999.90;;;999.90;;
3541;SDS011;1785;47.388;8.538;2023-09-08T11:13:05;1999.90;;;999.90;;
3541;SDS011;1785;47.388;8.538;2023-09-08T11:15:31;44.30;;;40.33;;
3541;SDS011;1785;47.388;8.538;2023-09-08T11:18:02;17.10;;;15.37;;
3541;SDS011;1785;47.388;8.538;2023-09-08T11:20:30;14.00;;;12.80;;
3541;SDS011;1785;47.388;8.538;2023-09-08T11:22:57;14.33;;;13.03;;
3541;SDS011;1785;47.388;8.538;2023-09-08T11:25:24;28.90;;;26.30;;
3541;SDS011;1785;47.388;8.538;2023-09-08T11:27:50;13.10;;;11.90;;
3541;SDS011;1785;47.388;8.538;2023-09-08T11:30:17;11.80;;;10.70;;
3541;SDS011;1785;47.388;8.538;2023-09-08T11:32:43;13.40;;;12.20;;
3541;SDS011;1785;47.388;8.538;2023-09-08T11:35:09;10.97;;;9.83;;
3541;SDS011;1785;47.388;8.538;2023-09-08T11:37:36;11.53;;;8.43;;
3541;SDS011;1785;47.388;8.538;2023-09-08T11:40:04;9.88;;;9.00;;
3541;SDS011;1785;47.388;8.538;2023-09-08T11:42:34;16.33;;;14.93;;
3541;SDS011;1785;47.388;8.538;2023-09-08T11:45:00;10.20;;;9.30;;
3541;SDS011;1785;47.388;8.538;2023-09-08T11:47:28;9.77;;;8.90;;
3541;SDS011;1785;47.388;8.538;2023-09-08T11:49:55;12.57;;;11.30;;
3541;SDS011;1785;47.388;8.538;2023-09-08T11:52:23;10.80;;;9.70;;
3541;SDS011;1785;47.388;8.538;2023-09-08T11:54:49;12.43;;;9.40;;
3541;SDS011;1785;47.388;8.538;2023-09-08T11:57:17;9.70;;;7.77;;
3541;SDS011;1785;47.388;8.538;2023-09-08T11:59:43;8.23;;;7.50;;
3541;SDS011;1785;47.388;8.538;2023-09-08T12:02:13;8.03;;;7.33;;
3541;SDS011;1785;47.388;8.538;2023-09-08T12:04:39;9.53;;;8.43;;
3541;SDS011;1785;47.388;8.538;2023-09-08T12:07:07;7.57;;;6.77;;
3541;SDS011;1785;47.388;8.538;2023-09-08T12:09:38;9.10;;;8.20;;
3541;SDS011;1785;47.388;8.538;2023-09-08T12:12:04;8.37;;;7.67;;
3541;SDS011;1785;47.388;8.538;2023-09-08T12:14:40;7.87;;;6.60;;
3541;SDS011;1785;47.388;8.538;2023-09-08T12:17:07;7.97;;;7.37;;
3541;SDS011;1785;47.388;8.538;2023-09-08T12:19:33;7.60;;;6.90;;
3541;SDS011;1785;47.388;8.538;2023-09-08T12:22:02;7.53;;;6.80;;
3541;SDS011;1785;47.388;8.538;2023-09-08T12:24:48;7.53;;;6.93;;
3541;SDS011;1785;47.388;8.538;2023-09-08T12:27:16;7.70;;;7.00;;
3541;SDS011;1785;47.388;8.538;2023-09-08T12:29:44;7.38;;;6.68;;
3541;SDS011;1785;47.388;8.538;2023-09-08T12:32:17;7.60;;;6.90;;
3541;SDS011;1785;47.388;8.538;2023-09-08T12:34:43;7.73;;;6.87;;
3541;SDS011;1785;47.388;8.538;2023-09-08T12:37:10;7.60;;;6.90;;
3541;SDS011;1785;47.388;8.538;2023-09-08T12:39:36;7.47;;;6.87;;
3541;SDS011;1785;47.388;8.538;2023-09-08T12:42:03;9.13;;;8.30;;
3541;SDS011;1785;47.388;8.538;2023-09-08T12:44:29;10.00;;;7.73;;
3541;SDS011;1785;47.388;8.538;2023-09-08T12:46:56;7.93;;;7.33;;
3541;SDS011;1785;47.388;8.538;2023-09-08T12:49:22;7.67;;;6.97;;
3541;SDS011;1785;47.388;8.538;2023-09-08T12:51:48;7.80;;;7.00;;
3541;SDS011;1785;47.388;8.538;2023-09-08T12:54:14;7.70;;;6.93;;
3541;SDS011;1785;47.388;8.538;2023-09-08T12:56:40;8.57;;;7.80;;
3541;SDS011;1785;47.388;8.538;2023-09-08T12:59:06;8.40;;;7.70;;
3541;SDS011;1785;47.388;8.538;2023-09-08T13:01:33;8.20;;;7.50;;
3541;SDS011;1785;47.388;8.538;2023-09-08T13:04:00;8.53;;;7.70;;
3541;SDS011;1785;47.388;8.538;2023-09-08T13:06:26;8.60;;;7.23;;
3541;SDS011;1785;47.388;8.538;2023-09-08T13:08:53;8.03;;;7.33;;
3541;SDS011;1785;47.388;8.538;2023-09-08T13:11:19;9.70;;;8.00;;
3541;SDS011;1785;47.388;8.538;2023-09-08T13:13:45;8.60;;;7.80;;
3541;SDS011;1785;47.388;8.538;2023-09-08T13:16:11;12.93;;;7.80;;
3541;SDS011;1785;47.388;8.538;2023-09-08T13:18:37;8.20;;;7.60;;
3541;SDS011;1785;47.388;8.538;2023-09-08T13:21:07;7.90;;;7.20;;
3541;SDS011;1785;47.388;8.538;2023-09-08T13:23:33;7.07;;;6.57;;
3541;SDS011;1785;47.388;8.538;2023-09-08T13:25:59;7.00;;;6.50;;
3541;SDS011;1785;47.388;8.538;2023-09-08T13:28:25;8.17;;;7.47;;
3541;SDS011;1785;47.388;8.538;2023-09-08T13:30:51;10.43;;;7.73;;
3541;SDS011;1785;47.388;8.538;2023-09-08T13:33:17;7.53;;;6.93;;
3541;SDS011;1785;47.388;8.538;2023-09-08T13:35:44;7.50;;;6.70;;
3541;SDS011;1785;47.388;8.538;2023-09-08T13:38:10;7.10;;;6.60;;
3541;SDS011;1785;47.388;8.538;2023-09-08T13:40:36;8.40;;;7.13;;
3541;SDS011;1785;47.388;8.538;2023-09-08T13:43:03;7.50;;;6.80;;
3541;SDS011;1785;47.388;8.538;2023-09-08T13:45:30;9.17;;;8.30;;
3541;SDS011;1785;47.388;8.538;2023-09-08T13:47:56;8.67;;;7.30;;
3541;SDS011;1785;47.388;8.538;2023-09-08T13:50:22;8.67;;;7.87;;
3541;SDS011;1785;47.388;8.538;2023-09-08T13:52:49;8.17;;;7.30;;
3541;SDS011;1785;47.388;8.538;2023-09-08T13:55:16;8.17;;;7.37;;
3541;SDS011;1785;47.388;8.538;2023-09-08T13:57:42;8.20;;;7.40;;
3541;SDS011;1785;47.388;8.538;2023-09-08T14:00:09;12.40;;;7.80;;
3541;SDS011;1785;47.388;8.538;2023-09-08T14:02:36;7.47;;;6.73;;
3541;SDS011;1785;47.388;8.538;2023-09-08T14:05:03;7.13;;;6.03;;
3541;SDS011;1785;47.388;8.538;2023-09-08T14:07:30;7.80;;;6.65;;
3541;SDS011;1785;47.388;8.538;2023-09-08T14:09:56;7.67;;;7.07;;
3541;SDS011;1785;47.388;8.538;2023-09-08T14:12:23;8.50;;;6.50;;
3541;SDS011;1785;47.388;8.538;2023-09-08T14:14:50;10.90;;;7.30;;
3541;SDS011;1785;47.388;8.538;2023-09-08T14:17:16;8.43;;;7.10;;
3541;SDS011;1785;47.388;8.538;2023-09-08T14:19:42;9.03;;;6.27;;
3541;SDS011;1785;47.388;8.538;2023-09-08T14:22:08;8.33;;;7.50;;
3541;SDS011;1785;47.388;8.538;2023-09-08T14:24:34;10.47;;;7.37;;
3541;SDS011;1785;47.388;8.538;2023-09-08T14:27:00;7.60;;;6.90;;
3541;SDS011;1785;47.388;8.538;2023-09-08T14:29:27;7.63;;;6.93;;
3541;SDS011;1785;47.388;8.538;2023-09-08T14:31:53;6.97;;;6.37;;
3541;SDS011;1785;47.388;8.538;2023-09-08T14:34:19;8.00;;;6.67;;
3541;SDS011;1785;47.388;8.538;2023-09-08T14:36:46;11.90;;;5.90;;
3541;SDS011;1785;47.388;8.538;2023-09-08T14:39:14;6.50;;;5.67;;
3541;SDS011;1785;47.388;8.538;2023-09-08T14:41:42;9.83;;;8.70;;
3541;SDS011;1785;47.388;8.538;2023-09-08T14:44:10;7.07;;;6.47;;
3541;SDS011;1785;47.388;8.538;2023-09-08T14:46:36;8.57;;;6.73;;
3541;SDS011;1785;47.388;8.538;2023-09-08T14:49:03;6.07;;;5.47;;
3541;SDS011;1785;47.388;8.538;2023-09-08T14:51:29;6.10;;;5.50;;